Time;durP1;ratioP1;P1;durP2;ratioP2;P2;SDS_P1;SDS_P2;PMS_P1;PMS_P2;Temp;Humidity;BMP_temperature;BMP_pressure;BME280_temperature;BME280_humidity;BME280_pressure;Samples;Min_cycle;Max_cycle;Signal;HPM_P1;HPM_P2
2021/12/29 00:00:35;;;;;;;277.05;116.65;;;;;;;-4.55;83.40;96811.23;1740870;80;20995;-57
2021/12/29 00:03:03;;;;;;;249.62;109.95;;;;;;;-4.52;83.26;96819.78;1740939;81;20985;-57
2021/12/29 00:05:30;;;;;;;255.22;106.05;;;;;;;-4.60;84.18;96827.45;1740907;82;21934;-57
2021/12/29 00:07:57;;;;;;;271.13;116.30;;;;;;;-4.49;83.76;96831.25;1741192;81;21426;-57
2021/12/29 00:10:24;;;;;;;248.75;111.42;;;;;;;-4.40;83.79;96828.13;1740883;81;21464;-57
2021/12/29 00:12:53;;;;;;;264.00;115.17;;;;;;;-4.36;83.34;96821.41;1740855;81;21052;-58
2021/12/29 00:15:22;;;;;;;;;;;;;;;-4.35;83.61;96822.21;1743214;82;21126;-57
2021/12/29 00:17:49;;;;;;;249.20;106.90;;;;;;;-4.31;83.23;96822.06;1734958;82;22093;-58
2021/12/29 00:20:20;;;;;;;253.35;117.15;;;;;;;-4.28;83.23;96822.44;1734309;82;21413;-57
2021/12/29 00:22:47;;;;;;;300.50;124.40;;;;;;;-4.32;82.94;96829.19;1740540;81;20985;-57
2021/12/29 00:25:14;;;;;;;231.07;109.32;;;;;;;-4.34;83.58;96821.19;1741047;81;20987;-57
2021/12/29 00:27:41;;;;;;;262.85;116.42;;;;;;;-4.29;83.70;96823.46;1740955;81;20992;-58
2021/12/29 00:30:11;;;;;;;254.28;111.90;;;;;;;-4.33;83.46;96832.86;1741344;81;21355;-58
2021/12/29 00:32:38;;;;;;;243.80;110.92;;;;;;;-4.36;84.37;96833.79;1741132;81;21416;-57
2021/12/29 00:35:08;;;;;;;247.98;105.83;;;;;;;-4.32;84.14;96852.19;1741087;82;21460;-56
2021/12/29 00:37:35;;;;;;;230.32;94.80;;;;;;;-4.24;83.80;96836.58;1740902;81;39031;-58
2021/12/29 00:40:03;;;;;;;243.12;104.17;;;;;;;-4.17;83.48;96835.50;1741314;82;21024;-58
2021/12/29 00:42:30;;;;;;;255.52;106.72;;;;;;;-4.20;83.63;96832.46;1738330;80;21475;-58
2021/12/29 00:44:57;;;;;;;246.93;105.75;;;;;;;-4.20;84.21;96835.11;1734651;82;20984;-58
2021/12/29 00:47:24;;;;;;;246.60;109.37;;;;;;;-4.15;85.09;96835.28;1739047;81;21380;-58
2021/12/29 00:49:51;;;;;;;232.30;102.12;;;;;;;-4.08;84.28;96828.92;1725325;82;21547;-57
2021/12/29 00:52:18;;;;;;;185.32;83.35;;;;;;;-4.00;83.86;96811.97;1737476;81;21436;-58
2021/12/29 00:54:45;;;;;;;241.70;106.78;;;;;;;-3.98;83.47;96817.84;1735008;82;21395;-58
2021/12/29 00:57:12;;;;;;;238.22;104.58;;;;;;;-4.03;83.79;96816.34;1737880;81;20992;-58
2021/12/29 00:59:39;;;;;;;243.78;109.48;;;;;;;-3.97;83.39;96822.11;1741292;82;21047;-57
2021/12/29 01:02:06;;;;;;;266.95;119.13;;;;;;;-4.04;83.78;96808.11;1740179;81;21028;-57
2021/12/29 01:04:33;;;;;;;234.70;103.20;;;;;;;-4.09;85.05;96819.88;1741355;82;21435;-58
2021/12/29 01:06:59;;;;;;;205.22;90.67;;;;;;;-4.03;84.32;96817.67;1740902;81;21508;-58
2021/12/29 01:09:26;;;;;;;201.60;92.47;;;;;;;-4.02;85.09;96819.28;1741134;82;21135;-58
2021/12/29 01:11:56;;;;;;;206.60;94.70;;;;;;;-3.93;83.85;96817.17;1740979;81;21048;-58
2021/12/29 01:14:25;;;;;;;211.30;93.30;;;;;;;-4.02;83.70;96811.34;1741081;82;21386;-57
2021/12/29 01:16:52;;;;;;;206.63;88.42;;;;;;;-4.08;83.86;96806.42;1738565;81;21035;-57
2021/12/29 01:19:25;;;;;;;206.65;92.55;;;;;;;-4.05;85.12;96809.95;1736905;82;21277;-57
2021/12/29 01:21:54;;;;;;;213.37;90.42;;;;;;;-4.10;86.57;96808.48;1736828;81;21024;-57
2021/12/29 01:24:22;;;;;;;211.10;95.50;;;;;;;-4.01;85.62;96805.86;1734853;82;20992;-57
2021/12/29 01:26:50;;;;;;;205.30;92.15;;;;;;;-3.93;84.88;96800.81;1734491;82;22111;-57
2021/12/29 01:29:17;;;;;;;218.73;103.05;;;;;;;-3.88;84.07;96796.98;1734921;82;21480;-57
2021/12/29 01:31:44;;;;;;;221.75;96.78;;;;;;;-4.00;83.90;96803.51;1737517;81;22045;-57
2021/12/29 01:34:11;;;;;;;226.20;102.00;;;;;;;-4.07;85.16;96794.81;1741345;81;20961;-57
2021/12/29 01:36:38;;;;;;;226.37;102.90;;;;;;;-4.09;85.70;96810.62;1740976;81;21586;-57
2021/12/29 01:39:09;;;;;;;220.63;98.35;;;;;;;-4.10;86.06;96812.45;1741140;81;20968;-57
2021/12/29 01:41:36;;;;;;;199.25;92.90;;;;;;;-4.03;85.69;96800.47;1741057;81;21012;-57
2021/12/29 01:44:03;;;;;;;215.52;92.82;;;;;;;-4.00;84.74;96805.34;1741222;82;21030;-57
2021/12/29 01:46:30;;;;;;;208.23;93.15;;;;;;;-4.03;84.74;96803.92;1740891;81;21432;-57
2021/12/29 01:48:57;;;;;;;232.22;98.15;;;;;;;-4.04;84.42;96804.95;1768194;80;20998;-57
2021/12/29 01:51:24;;;;;;;218.40;97.42;;;;;;;-4.03;84.63;96797.31;1752078;80;20968;-57
2021/12/29 01:54:03;;;;;;;225.78;99.07;;;;;;;-4.02;84.53;96804.22;1734836;82;21007;-57
2021/12/29 01:56:19;;;;;;;231.72;103.95;;;;;;;-3.90;84.69;96806.98;1734653;80;22136;-57
2021/12/29 01:58:46;;;;;;;223.03;98.10;;;;;;;-3.90;84.69;96805.66;1741172;82;20939;-57
2021/12/29 02:01:13;;;;;;;239.55;108.80;;;;;;;-3.83;84.80;96805.09;1740919;81;22053;-57
2021/12/29 02:03:40;;;;;;;231.20;104.53;;;;;;;-3.81;85.52;96809.64;1741191;82;21036;-57
2021/12/29 02:06:07;;;;;;;187.57;88.58;;;;;;;-3.74;86.19;96815.69;1738290;82;21000;-57
2021/12/29 02:08:35;;;;;;;199.30;87.27;;;;;;;-3.61;85.38;96813.41;1734784;82;21308;-57
2021/12/29 02:11:04;;;;;;;205.07;93.78;;;;;;;-3.60;85.39;96807.61;1734722;82;21027;-57
2021/12/29 02:13:31;;;;;;;;;;;;;;;-3.53;85.70;96810.48;1743619;81;21437;-57
2021/12/29 02:15:57;;;;;;;202.72;87.22;;;;;;;-3.40;85.53;96802.93;1740928;81;20939;-57
2021/12/29 02:18:25;;;;;;;210.35;95.15;;;;;;;-3.29;85.06;96808.00;1741193;81;22015;-57
2021/12/29 02:20:54;;;;;;;172.33;80.20;;;;;;;-3.20;85.12;96810.64;1740480;80;22033;-57
2021/12/29 02:23:31;;;;;;;183.33;93.57;;;;;;;-3.14;84.76;96811.09;1734981;82;21579;-57
2021/12/29 02:25:54;;;;;;;198.38;92.35;;;;;;;-3.13;85.20;96798.94;1733947;82;21697;-57
2021/12/29 02:28:32;;;;;;;221.90;103.33;;;;;;;-3.07;84.53;96804.39;1735065;82;21488;-57
2021/12/29 02:30:59;;;;;;;215.77;95.15;;;;;;;-3.03;84.76;96805.55;1735731;81;21386;-57
2021/12/29 02:33:27;;;;;;;190.20;88.70;;;;;;;-3.00;84.83;96809.88;1741249;81;21508;-57
2021/12/29 02:35:54;;;;;;;248.87;117.13;;;;;;;-2.95;84.61;96800.75;1740871;81;21460;-57
2021/12/29 02:38:26;;;;;;;253.95;121.28;;;;;;;-2.98;84.54;96795.10;1741298;81;20985;-57
2021/12/29 02:40:57;;;;;;;260.13;118.72;;;;;;;-2.98;84.10;96791.13;1741010;81;20984;-57
2021/12/29 02:43:24;;;;;;;263.07;117.50;;;;;;;-2.98;84.32;96799.08;1741282;81;20987;-57
2021/12/29 02:45:58;;;;;;;240.80;107.58;;;;;;;-3.00;85.24;96795.30;1740879;81;21453;-57
2021/12/29 02:48:23;;;;;;;227.62;105.37;;;;;;;-2.95;84.89;96804.73;1758525;80;21434;-57
2021/12/29 02:50:54;;;;;;;286.10;128.02;;;;;;;-2.91;85.34;96809.05;1761722;80;26603;-57
2021/12/29 02:53:19;;;;;;;234.60;98.58;;;;;;;-2.82;85.06;96804.25;1741074;81;21008;-57
2021/12/29 02:55:45;;;;;;;253.02;117.93;;;;;;;-2.74;84.64;96799.97;1741044;81;21047;-57
2021/12/29 02:58:12;;;;;;;172.60;80.25;;;;;;;-2.73;84.63;96802.42;1741110;81;21243;-57
2021/12/29 03:00:39;;;;;;;190.77;89.22;;;;;;;-2.67;84.37;96804.15;1741085;81;20976;-57
2021/12/29 03:03:17;;;;;;;181.45;83.05;;;;;;;-2.76;85.35;96813.45;1741126;81;20981;-57
2021/12/29 03:05:44;;;;;;;144.37;64.17;;;;;;;-2.83;86.54;96818.03;1741273;81;21007;-58
2021/12/29 03:08:13;;;;;;;175.22;79.03;;;;;;;-2.74;85.21;96818.53;1740881;82;21518;-58
2021/12/29 03:10:40;;;;;;;143.30;68.22;;;;;;;-2.75;85.11;96819.56;1741090;81;21390;-57
2021/12/29 03:13:07;;;;;;;154.82;75.28;;;;;;;-2.69;85.16;96815.50;1740818;81;21389;-57
2021/12/29 03:15:36;;;;;;;141.45;66.17;;;;;;;-2.65;84.75;96814.52;1740912;81;21429;-57
2021/12/29 03:18:04;;;;;;;167.50;74.45;;;;;;;-2.64;84.38;96813.00;1741061;81;20968;-57
2021/12/29 03:20:31;;;;;;;164.75;73.20;;;;;;;-2.66;84.44;96808.94;1740960;81;21456;-57
2021/12/29 03:22:58;;;;;;;162.92;76.22;;;;;;;-2.68;84.48;96810.48;1740882;81;21009;-57
2021/12/29 03:25:25;;;;;;;176.90;80.20;;;;;;;-2.65;84.56;96803.92;1740910;81;21071;-57
2021/12/29 03:27:58;;;;;;;159.93;74.97;;;;;;;-2.65;84.94;96807.41;1740898;81;21055;-57
2021/12/29 03:30:22;;;;;;;163.85;72.03;;;;;;;-2.53;85.17;96805.30;1740434;81;21402;-57
2021/12/29 03:32:52;;;;;;;172.28;78.33;;;;;;;-2.48;84.96;96804.89;1740892;81;21004;-57
2021/12/29 03:35:18;;;;;;;159.93;76.10;;;;;;;-2.40;84.87;96803.25;1740952;81;26386;-57
2021/12/29 03:37:45;;;;;;;163.05;74.05;;;;;;;-2.34;84.97;96806.33;1740800;81;21024;-57
2021/12/29 03:40:13;;;;;;;167.55;75.85;;;;;;;-2.23;85.13;96806.58;1741053;81;21037;-58
2021/12/29 03:42:40;;;;;;;201.52;89.07;;;;;;;-2.19;85.00;96800.60;1735489;81;21007;-57
2021/12/29 03:45:08;;;;;;;203.88;86.35;;;;;;;-2.13;85.31;96806.85;1734509;82;20999;-57
2021/12/29 03:47:35;;;;;;;122.93;59.13;;;;;;;-2.07;84.94;96804.59;1736045;82;21515;-58
2021/12/29 03:50:02;;;;;;;164.13;75.00;;;;;;;-2.02;84.83;96806.86;1738460;82;20972;-57
2021/12/29 03:52:29;;;;;;;146.53;71.65;;;;;;;-1.93;84.96;96804.67;1740290;81;21020;-57
2021/12/29 03:54:56;;;;;;;136.32;64.50;;;;;;;-1.92;85.21;96802.83;1740955;82;21026;-57
2021/12/29 03:57:23;;;;;;;130.03;61.98;;;;;;;-1.93;85.10;96804.67;1740741;81;21500;-57
2021/12/29 03:59:50;;;;;;;133.32;64.03;;;;;;;-1.93;85.05;96813.16;1740843;82;21473;-57
2021/12/29 04:02:17;;;;;;;136.40;64.70;;;;;;;-1.99;85.10;96814.36;1736372;81;21465;-57
2021/12/29 04:04:43;;;;;;;135.15;64.35;;;;;;;-1.95;85.14;96811.27;1734599;82;21067;-57
2021/12/29 04:07:10;;;;;;;136.20;65.57;;;;;;;-1.99;85.04;96813.03;1738748;82;21386;-57
2021/12/29 04:09:38;;;;;;;128.27;60.05;;;;;;;-1.97;84.85;96816.78;1741212;82;20992;-57
2021/12/29 04:12:06;;;;;;;132.25;61.08;;;;;;;-1.90;84.87;96823.31;1740950;81;21566;-57
2021/12/29 04:14:33;;;;;;;136.45;65.05;;;;;;;-1.93;84.71;96828.57;1741068;81;21598;-57
2021/12/29 04:17:08;;;;;;;125.10;56.98;;;;;;;-2.00;84.55;96831.84;1740949;81;20976;-57
2021/12/29 04:19:32;;;;;;;115.45;53.25;;;;;;;-2.15;84.61;96834.92;1740554;82;26451;-57
2021/12/29 04:21:58;;;;;;;113.03;52.60;;;;;;;-2.21;84.67;96833.72;1741022;81;21049;-57
2021/12/29 04:24:25;;;;;;;120.28;57.70;;;;;;;-2.27;84.75;96844.20;1741057;81;21405;-57
2021/12/29 04:26:52;;;;;;;116.93;53.80;;;;;;;-2.31;84.81;96845.70;1739285;81;20980;-57
2021/12/29 04:29:19;;;;;;;134.22;59.15;;;;;;;-2.31;84.79;96842.21;1741012;82;21361;-57
2021/12/29 04:31:46;;;;;;;126.35;57.33;;;;;;;-2.31;85.06;96840.39;1740943;81;21004;-57
2021/12/29 04:34:13;;;;;;;132.95;62.55;;;;;;;-2.29;85.18;96839.64;1741202;82;21062;-57
2021/12/29 04:36:40;;;;;;;142.60;69.15;;;;;;;-2.31;85.20;96844.86;1740995;81;21202;-57
2021/12/29 04:39:07;;;;;;;154.63;73.55;;;;;;;-2.27;85.43;96841.55;1741106;82;20953;-57
2021/12/29 04:41:34;;;;;;;162.00;72.95;;;;;;;-2.14;85.68;96848.48;1739517;81;21003;-57
2021/12/29 04:44:01;;;;;;;138.18;70.03;;;;;;;-2.04;86.11;96845.30;1734650;82;21005;-57
2021/12/29 04:46:36;;;;;;;141.77;69.32;;;;;;;-1.96;85.96;96844.16;1734417;82;21040;-57
2021/12/29 04:49:01;;;;;;;109.17;51.18;;;;;;;-1.89;85.62;96844.84;1738723;82;22708;-57
2021/12/29 04:51:33;;;;;;;100.45;48.50;;;;;;;-1.88;85.00;96834.51;1736521;81;20983;-57
2021/12/29 04:53:54;;;;;;;;;;;;;;;-1.97;85.08;96841.19;1736656;82;21489;-57
2021/12/29 04:56:21;;;;;;;87.37;43.60;;;;;;;-2.01;85.24;96839.52;1735127;81;20279;-57
2021/12/29 04:58:48;;;;;;;94.80;42.75;;;;;;;-2.00;85.52;96848.58;1740978;82;20948;-58
2021/12/29 05:01:15;;;;;;;130.10;57.38;;;;;;;-1.96;85.50;96838.86;1719172;82;21416;-57
2021/12/29 05:03:44;;;;;;;110.88;53.98;;;;;;;-1.92;85.58;96843.98;1734563;82;21047;-57
2021/12/29 05:08:38;;;;;;;171.60;81.20;;;;;;;-1.90;85.74;96847.21;1734456;82;21443;-57
2021/12/29 05:11:09;;;;;;;173.97;91.17;;;;;;;-1.92;85.77;96844.79;1735743;82;21601;-57
2021/12/29 05:13:38;;;;;;;217.45;104.80;;;;;;;-1.95;85.71;96849.77;1734113;82;21854;-57
2021/12/29 05:16:05;;;;;;;211.22;100.70;;;;;;;-1.90;85.96;96856.50;1713555;82;21011;-57
2021/12/29 05:18:34;;;;;;;188.35;93.95;;;;;;;-1.84;86.49;96858.25;1734651;82;21433;-58
2021/12/29 05:21:02;;;;;;;166.18;82.40;;;;;;;-1.84;86.01;96860.91;1735067;82;21020;-58
2021/12/29 05:23:29;;;;;;;146.68;67.27;;;;;;;-1.84;86.35;96864.89;1741320;81;20996;-57
2021/12/29 05:25:56;;;;;;;162.77;74.05;;;;;;;-1.81;86.12;96857.27;1740917;81;22082;-57
2021/12/29 05:28:24;;;;;;;206.15;91.40;;;;;;;-1.75;86.25;96868.31;1740952;81;21265;-57
2021/12/29 05:30:51;;;;;;;137.72;61.63;;;;;;;-1.73;86.11;96862.77;1740934;81;21570;-57
2021/12/29 05:33:18;;;;;;;220.57;96.75;;;;;;;-1.77;86.08;96865.60;1740988;81;21448;-57
2021/12/29 05:35:45;;;;;;;204.80;93.22;;;;;;;-1.79;86.12;96865.84;1740900;81;20993;-57
2021/12/29 05:38:12;;;;;;;205.32;95.12;;;;;;;-1.77;86.42;96865.60;1741248;81;21307;-57
2021/12/29 05:40:39;;;;;;;151.72;70.25;;;;;;;-1.68;86.33;96865.55;1741254;81;20997;-57
2021/12/29 05:43:06;;;;;;;125.75;64.55;;;;;;;-1.71;88.10;96867.32;1741043;81;21436;-57
2021/12/29 05:45:33;;;;;;;135.68;62.00;;;;;;;-1.69;88.03;96877.22;1741124;81;21004;-57
2021/12/29 05:48:01;;;;;;;140.52;71.35;;;;;;;-1.56;87.27;96879.64;1737847;81;21003;-57
2021/12/29 05:50:29;;;;;;;153.62;74.30;;;;;;;-1.48;87.03;96878.49;1737415;82;21441;-57
2021/12/29 05:52:56;;;;;;;140.90;71.30;;;;;;;-1.42;86.64;96882.38;1741240;81;21023;-57
2021/12/29 05:55:23;;;;;;;137.07;64.90;;;;;;;-1.38;86.45;96888.02;1740927;82;20992;-57
2021/12/29 05:57:50;;;;;;;122.62;61.15;;;;;;;-1.33;86.61;96883.36;1736755;81;21075;-57
2021/12/29 06:00:19;;;;;;;121.53;58.05;;;;;;;-1.29;86.38;96883.97;1740662;82;20968;-57
2021/12/29 06:02:46;;;;;;;122.80;59.85;;;;;;;-1.26;86.18;96887.52;1739472;81;21399;-57
2021/12/29 06:05:13;;;;;;;112.92;54.50;;;;;;;-1.34;85.91;96885.20;1741025;82;21039;-57
2021/12/29 06:07:40;;;;;;;130.78;65.65;;;;;;;-1.41;85.98;96891.15;1738691;82;20969;-57
2021/12/29 06:10:09;;;;;;;117.75;61.30;;;;;;;-1.40;86.24;96889.30;1741117;82;21432;-57
2021/12/29 06:12:37;;;;;;;133.67;67.62;;;;;;;-1.34;86.36;96892.38;1731339;82;25713;-57
2021/12/29 06:15:05;;;;;;;140.00;70.97;;;;;;;-1.25;86.44;96898.44;1741002;82;22009;-57
2021/12/29 06:17:32;;;;;;;108.77;51.97;;;;;;;-1.27;87.54;96902.38;1736802;82;21000;-57
2021/12/29 06:19:59;;;;;;;109.57;55.17;;;;;;;-1.22;86.73;96903.28;1741111;82;21447;-57
2021/12/29 06:22:25;;;;;;;105.80;50.63;;;;;;;-1.30;86.99;96901.48;1739506;81;21004;-57
2021/12/29 06:24:52;;;;;;;103.15;46.88;;;;;;;-1.25;86.59;96911.73;1741085;82;20968;-57
2021/12/29 06:27:20;;;;;;;137.12;62.88;;;;;;;-1.15;86.30;96915.13;1736682;81;21412;-57
2021/12/29 06:29:47;;;;;;;127.65;62.43;;;;;;;-1.24;86.07;96913.34;1734883;82;21079;-57
2021/12/29 06:32:14;;;;;;;176.07;79.90;;;;;;;-1.26;86.26;96917.28;1737498;81;21032;-57
2021/12/29 06:34:41;;;;;;;171.10;81.78;;;;;;;-1.28;86.43;96920.66;1747427;80;20975;-57
2021/12/29 06:37:12;;;;;;;181.78;90.10;;;;;;;-1.22;86.50;96931.19;1746428;80;21417;-57
2021/12/29 06:39:41;;;;;;;162.47;82.25;;;;;;;-1.16;87.31;96932.94;1741128;82;21966;-57
2021/12/29 06:42:08;;;;;;;156.95;78.25;;;;;;;-1.03;86.97;96941.70;1737279;81;20983;-57
2021/12/29 06:44:35;;;;;;;136.52;66.30;;;;;;;-1.04;86.46;96950.20;1734442;82;21476;-57
2021/12/29 06:47:03;;;;;;;130.35;64.77;;;;;;;-1.05;86.27;96945.93;1739668;81;22105;-57
2021/12/29 06:49:30;;;;;;;119.20;57.17;;;;;;;-1.04;86.50;96950.20;1776429;80;21434;-57
2021/12/29 06:51:57;;;;;;;112.40;58.02;;;;;;;-1.05;86.23;96947.26;1745064;80;21446;-57
2021/12/29 06:54:24;;;;;;;179.65;78.87;;;;;;;-1.07;86.33;96949.88;1740898;82;21119;-57
2021/12/29 06:56:51;;;;;;;108.85;53.55;;;;;;;-1.11;86.41;96954.86;1741250;81;20964;-57
2021/12/29 06:59:18;;;;;;;113.05;51.60;;;;;;;-1.14;86.49;96955.30;1739488;80;21438;-57
2021/12/29 07:01:44;;;;;;;118.22;58.85;;;;;;;-1.18;86.61;96953.63;1738852;81;20988;-57
2021/12/29 07:04:11;;;;;;;108.90;59.08;;;;;;;-1.15;87.25;96958.48;1736338;81;21392;-57
2021/12/29 07:06:38;;;;;;;102.47;57.35;;;;;;;-1.06;87.76;96950.16;1699587;82;21037;-57
2021/12/29 07:09:05;;;;;;;107.70;57.78;;;;;;;-0.97;87.44;96962.87;1716261;82;20973;-57
2021/12/29 07:11:33;;;;;;;97.25;52.55;;;;;;;-0.88;87.19;96959.34;1714418;81;21496;-57
2021/12/29 07:14:03;;;;;;;101.75;50.92;;;;;;;-0.81;86.97;96968.01;1716204;82;21048;-57
2021/12/29 07:16:30;;;;;;;114.80;67.08;;;;;;;-0.81;87.31;96966.68;1711078;82;26452;-57
2021/12/29 07:18:57;;;;;;;133.03;78.80;;;;;;;-0.79;87.93;96968.58;1714529;83;21009;-58
2021/12/29 07:21:24;;;;;;;102.17;53.68;;;;;;;-0.75;88.25;96964.43;1706228;82;21067;-57
2021/12/29 07:23:53;;;;;;;89.58;47.00;;;;;;;-0.73;87.53;96968.18;1705589;83;21017;-57
2021/12/29 07:26:21;;;;;;;103.55;54.45;;;;;;;-0.76;87.06;96966.80;1721837;82;26899;-57
2021/12/29 07:28:49;;;;;;;95.95;47.90;;;;;;;-0.83;86.99;96969.30;1715388;83;21729;-57
2021/12/29 07:31:16;;;;;;;99.13;51.10;;;;;;;-0.80;87.00;96976.27;1717759;82;21461;-57
2021/12/29 07:33:43;;;;;;;107.03;53.10;;;;;;;-0.85;86.94;96970.86;1721476;82;21016;-57
2021/12/29 07:36:11;;;;;;;93.87;49.90;;;;;;;-0.90;87.11;96974.20;1710669;81;21041;-58
2021/12/29 07:38:40;;;;;;;114.10;54.42;;;;;;;-0.82;87.15;96976.23;1716147;81;21472;-57
2021/12/29 07:41:07;;;;;;;187.37;119.37;;;;;;;-0.79;87.41;96983.73;1713624;81;21426;-57
2021/12/29 07:43:35;;;;;;;178.32;111.52;;;;;;;-0.75;88.29;96987.56;1708850;83;21079;-57
2021/12/29 07:46:03;;;;;;;121.90;62.80;;;;;;;-0.69;88.03;96991.41;1713357;82;21048;-58
2021/12/29 07:48:31;;;;;;;103.55;55.52;;;;;;;-0.57;87.56;96992.75;1715284;82;21092;-57
2021/12/29 07:50:59;;;;;;;97.97;50.12;;;;;;;-0.56;87.27;96991.70;1712151;82;20997;-57
2021/12/29 07:53:26;;;;;;;108.67;59.33;;;;;;;-0.55;87.20;96987.19;1719539;81;21469;-57
2021/12/29 07:55:53;;;;;;;132.72;66.07;;;;;;;-0.58;87.53;96987.14;1715128;81;21067;-59
2021/12/29 07:58:22;;;;;;;151.07;71.28;;;;;;;-0.51;87.48;96995.81;1711705;82;21646;-57
2021/12/29 08:00:49;;;;;;;183.30;87.30;;;;;;;-0.43;87.61;96998.09;1711622;82;21083;-58
2021/12/29 08:03:16;;;;;;;170.53;85.45;;;;;;;-0.33;87.60;97006.31;1714647;82;20985;-58
2021/12/29 08:05:43;;;;;;;369.27;171.60;;;;;;;-0.20;87.72;97008.41;1707796;82;22039;-57
2021/12/29 08:08:11;;;;;;;336.80;161.03;;;;;;;-0.09;87.67;97007.03;1712917;81;21019;-57
2021/12/29 08:10:38;;;;;;;309.40;145.60;;;;;;;-0.01;87.32;97006.66;1716141;81;21064;-57
2021/12/29 08:13:05;;;;;;;233.57;124.78;;;;;;;-0.02;87.02;97005.58;1713623;82;21012;-57
2021/12/29 08:15:32;;;;;;;309.95;153.02;;;;;;;0.05;87.10;97006.25;1713247;82;21130;-58
2021/12/29 08:18:02;;;;;;;190.30;94.97;;;;;;;0.07;86.86;96995.36;1708919;82;21061;-57
2021/12/29 08:20:31;;;;;;;250.15;120.50;;;;;;;0.13;86.92;97003.73;1708526;81;21069;-57
2021/12/29 08:22:58;;;;;;;304.68;145.62;;;;;;;0.13;86.70;96999.74;1713484;82;21560;-56
2021/12/29 08:25:25;;;;;;;203.70;112.80;;;;;;;0.22;86.99;97002.31;1720176;82;21476;-56
2021/12/29 08:27:52;;;;;;;301.10;166.10;;;;;;;0.21;86.99;96999.36;1716516;81;21083;-57
2021/12/29 08:30:19;;;;;;;204.93;111.17;;;;;;;0.25;86.99;96999.97;1712492;82;22114;-57
2021/12/29 08:32:46;;;;;;;200.62;99.92;;;;;;;0.32;86.81;97010.48;1711925;82;21068;-57
2021/12/29 08:35:13;;;;;;;140.12;72.20;;;;;;;0.37;86.80;97009.78;1714324;82;21107;-57
2021/12/29 08:37:40;;;;;;;154.12;72.95;;;;;;;0.47;86.77;97008.10;1710326;82;21044;-57
2021/12/29 08:40:08;;;;;;;148.62;71.92;;;;;;;0.43;86.37;97013.64;1713311;82;21482;-57
2021/12/29 08:42:36;;;;;;;137.30;69.60;;;;;;;0.34;86.48;97016.38;1711761;83;21733;-57
2021/12/29 08:45:05;;;;;;;129.32;72.25;;;;;;;0.24;86.62;97015.67;1711965;82;21583;-57
2021/12/29 08:47:32;;;;;;;170.40;89.00;;;;;;;0.29;86.89;97016.30;1709303;82;20973;-58
2021/12/29 08:49:59;;;;;;;166.92;83.80;;;;;;;0.34;86.74;97013.71;1713444;81;20988;-57
2021/12/29 08:52:26;;;;;;;164.72;95.67;;;;;;;0.47;86.91;97024.62;1714522;82;21119;-57
2021/12/29 08:54:53;;;;;;;264.42;141.28;;;;;;;0.50;87.55;97023.61;1712374;82;21016;-57
2021/12/29 08:57:19;;;;;;;127.78;76.55;;;;;;;0.61;87.44;97028.62;1713730;82;21559;-58
2021/12/29 08:59:46;;;;;;;125.35;61.50;;;;;;;0.67;86.76;97021.49;1714481;82;21128;-58
2021/12/29 09:02:13;;;;;;;161.60;89.90;;;;;;;0.64;86.58;97025.46;1713586;82;21098;-58
2021/12/29 09:04:40;;;;;;;164.40;94.75;;;;;;;0.63;86.71;97034.52;1714220;82;21075;-58
2021/12/29 09:07:07;;;;;;;155.32;80.57;;;;;;;0.70;87.07;97035.17;1711592;82;21580;-58
2021/12/29 09:09:34;;;;;;;142.13;81.28;;;;;;;0.87;87.19;97033.05;1712611;81;21076;-57
2021/12/29 09:12:01;;;;;;;124.53;68.12;;;;;;;1.00;87.04;97039.39;1717259;81;20985;-57
2021/12/29 09:14:28;;;;;;;122.07;64.80;;;;;;;1.12;86.77;97038.27;1712922;82;21100;-58
2021/12/29 09:16:54;;;;;;;126.45;70.17;;;;;;;1.10;86.24;97035.55;1712549;82;21564;-57
2021/12/29 09:19:22;;;;;;;117.17;61.53;;;;;;;1.04;86.26;97037.34;1711371;82;21181;-57
2021/12/29 09:21:53;;;;;;;116.50;59.60;;;;;;;1.12;86.53;97034.80;1719470;81;21049;-58
2021/12/29 09:24:18;;;;;;;114.77;58.28;;;;;;;1.13;86.25;97037.75;1713544;82;20981;-58
2021/12/29 09:26:45;;;;;;;103.90;55.48;;;;;;;1.11;86.31;97031.81;1713401;82;21469;-58
2021/12/29 09:29:12;;;;;;;102.75;60.25;;;;;;;1.11;86.43;97038.49;1712510;81;21174;-57
2021/12/29 09:31:39;;;;;;;112.52;62.65;;;;;;;1.15;86.59;97036.97;1716994;81;21005;-57
2021/12/29 09:34:07;;;;;;;113.47;68.47;;;;;;;1.24;86.90;97036.84;1713897;81;21165;-57
2021/12/29 09:36:33;;;;;;;123.20;73.12;;;;;;;1.36;86.84;97042.08;1713706;81;21001;-57
2021/12/29 09:39:00;;;;;;;125.60;73.15;;;;;;;1.48;86.88;97041.47;1719925;81;21396;-57
2021/12/29 09:41:30;;;;;;;133.85;79.12;;;;;;;1.56;86.53;97041.58;1712659;81;21043;-57
2021/12/29 09:43:56;;;;;;;154.70;80.77;;;;;;;1.67;86.62;97034.79;1717458;81;21546;-56
2021/12/29 09:46:23;;;;;;;127.05;71.72;;;;;;;1.82;86.75;97037.39;1709765;83;21519;-57
2021/12/29 09:48:51;;;;;;;134.10;75.67;;;;;;;1.98;86.80;97039.20;1714242;81;21059;-57
2021/12/29 09:51:18;;;;;;;133.30;75.60;;;;;;;2.12;86.79;97044.97;1714354;81;21628;-57
2021/12/29 09:53:45;;;;;;;119.50;67.75;;;;;;;2.22;86.58;97042.41;1718836;81;21115;-58
2021/12/29 09:56:12;;;;;;;128.75;71.55;;;;;;;2.30;86.37;97036.63;1720651;81;21231;-58
2021/12/29 09:58:39;;;;;;;150.27;78.40;;;;;;;2.35;86.21;97039.90;1714557;82;21095;-57
2021/12/29 10:01:08;;;;;;;156.75;78.60;;;;;;;2.33;84.99;97036.67;1712719;82;21485;-57
2021/12/29 10:03:36;;;;;;;144.77;75.08;;;;;;;2.12;84.84;97040.43;1714402;81;21519;-58
2021/12/29 10:06:07;;;;;;;131.07;65.90;;;;;;;2.04;85.00;97041.39;1713950;82;21484;-58
2021/12/29 10:08:43;;;;;;;113.28;57.48;;;;;;;1.93;85.04;97040.47;1720790;82;21520;-57
2021/12/29 10:11:14;;;;;;;112.97;62.43;;;;;;;1.97;85.37;97046.95;1708091;82;21489;-58
2021/12/29 10:13:43;;;;;;;118.85;62.05;;;;;;;1.90;85.31;97047.12;1710443;81;21024;-57
2021/12/29 10:16:16;;;;;;;140.65;74.27;;;;;;;1.96;85.19;97050.12;1712270;82;21135;-57
2021/12/29 10:18:43;;;;;;;193.78;97.67;;;;;;;1.87;85.24;97046.80;1711564;82;22345;-58
2021/12/29 10:21:14;;;;;;;195.00;115.62;;;;;;;1.91;85.44;97046.59;1714136;82;21102;-58
2021/12/29 10:23:46;;;;;;;193.17;112.30;;;;;;;2.00;85.55;97044.30;1713725;82;21072;-58
2021/12/29 10:26:25;;;;;;;182.78;109.95;;;;;;;2.17;85.59;97045.05;1712739;82;21043;-57
2021/12/29 10:28:56;;;;;;;259.83;122.85;;;;;;;2.19;84.98;97042.92;1717795;81;27007;-57
2021/12/29 10:31:26;;;;;;;273.62;148.68;;;;;;;2.33;85.08;97046.84;1742414;80;21041;-57
2021/12/29 10:33:56;;;;;;;238.30;129.55;;;;;;;2.41;85.14;97051.74;1740449;80;22336;-57
2021/12/29 10:36:46;;;;;;;280.62;130.25;;;;;;;2.55;84.83;97046.79;1742093;80;21072;-58
2021/12/29 10:39:34;;;;;;;240.43;122.60;;;;;;;2.74;84.87;97038.71;1741257;80;21002;-57
2021/12/29 10:42:11;;;;;;;208.30;113.15;;;;;;;2.91;84.25;97042.61;1743471;80;21586;-58
2021/12/29 10:44:42;;;;;;;191.85;91.17;;;;;;;3.11;84.38;97037.95;1746163;79;21079;-58
2021/12/29 10:47:31;;;;;;;209.52;98.80;;;;;;;3.33;84.28;97031.98;1744715;80;21126;-58
2021/12/29 10:50:09;;;;;;;132.45;65.10;;;;;;;3.42;83.95;97028.80;1748884;80;21064;-58
2021/12/29 10:52:40;;;;;;;144.80;72.65;;;;;;;3.58;83.93;97023.81;1747452;80;21126;-58
2021/12/29 10:55:16;;;;;;;108.32;60.17;;;;;;;3.62;82.09;97026.27;1746617;80;20957;-58
2021/12/29 10:57:44;;;;;;;132.57;72.35;;;;;;;3.67;81.71;97023.09;1745516;81;21050;-58
2021/12/29 11:00:16;;;;;;;135.52;66.22;;;;;;;3.73;82.44;97021.23;1744148;80;21045;-58
2021/12/29 11:02:43;;;;;;;114.70;57.35;;;;;;;3.75;82.88;97019.09;1739141;81;21071;-58
2021/12/29 11:05:10;;;;;;;150.70;69.63;;;;;;;3.79;83.02;97018.05;1737991;81;20976;-58
2021/12/29 11:07:38;;;;;;;90.03;49.65;;;;;;;3.80;82.84;97012.96;1740299;81;21012;-57
2021/12/29 11:10:19;;;;;;;93.25;45.73;;;;;;;3.87;83.46;97015.68;1746157;80;21395;-57
2021/12/29 11:12:53;;;;;;;106.63;51.18;;;;;;;3.92;83.47;97017.56;1737704;81;21075;-57
2021/12/29 11:15:30;;;;;;;146.20;67.03;;;;;;;4.01;82.75;97015.19;1737188;80;21291;-57
2021/12/29 11:18:10;;;;;;;79.72;43.70;;;;;;;4.07;82.38;97016.83;1746344;80;21044;-57